Weather History for Colby, KS

Change the Weather History Date:

Monday, December 23, 2013

  Actual Average (KGLD) Record (KGLD)
Temperature  
Mean Temperature 22 °F 29 °F  
Max Temperature 30 °F 42 °F 83 °F (1964)
Min Temperature 15 °F 17 °F -9 °F (1990)
Degree Days  
Heating Degree Days 42 36  
Month to date heating degree days 804  
Since 1 July heating degree days 2123  
Cooling Degree Days 0 0  
Month to date cooling degree days 0  
Year to date cooling degree days 941  
Moisture  
Dew Point 17 °F    
Average Humidity 86    
Maximum Humidity 100    
Minimum Humidity 64    
Precipitation  
Precipitation 0.00 in 0.01 in 0.24 in (1939)
Month to date precipitation 0.35  
Year to date precipitation 19.55  
Snow  
Snow 0.00 in 0.20 in - ()
Month to date snowfall 4.1  
Since 1 July snowfall 11.3  
Snow Depth -    
Sea Level Pressure  
Sea Level Pressure 30.33 in    
Wind  
Wind Speed 13 mph (SSE)    
Max Wind Speed 21 mph    
Max Gust Speed 26 mph    
Visibility 10 miles    
Events Snow    
T = Trace of Precipitation, MM = Missing Value Source: NWS Daily Summary

Daily Weather History Graph

Daily Weather History Graph

Search for Another Location

Airport:

Trip Planner

Search our weather history database for the weather conditions in past years. The results will help you decide how hot, cold, wet, or windy it might be!

Date:

Astronomy

Dec. 23, 2013 Rise Set
Actual Time 8:01 AM CST 5:25 PM CST
Civil Twilight 7:31 AM CST 5:55 PM CST
Nautical Twilight 6:57 AM CST 6:29 PM CST
Astronomical Twilight 6:25 AM CST 7:01 PM CST
Moon 11:35 PM CST (12/23) 11:29 AM CST (12/23)
Length of Visible Light 10h 23m
Length of Day
9h 23m
Waning Gibbous, 68% of the Moon is Illuminated
Dec 23
Waning Gibbous
Dec 25
Last Quarter
Jan 1
New
Jan 7
First Quarter
Jan 15
Full

Hourly Weather History & Observations

Time (CST) Temp. Windchill Dew Point Humidity Pressure Visibility Wind Dir Wind Speed Gust Speed Precip Events Conditions
12:15 AM 24.8 °F 11.1 °F 19.4 °F 80% 30.20 in 10.0 mi ENE 18.4 mph 24.2 mph N/A   Overcast
12:35 AM 24.8 °F 10.7 °F 19.4 °F 80% 30.22 in 10.0 mi NE 19.6 mph - N/A   Overcast
12:55 AM 23.0 °F 9.6 °F 19.4 °F 86% 30.23 in 10.0 mi NE 16.1 mph - N/A   Overcast
1:15 AM 21.2 °F 5.6 °F 19.4 °F 93% 30.24 in 5.0 mi NE 20.7 mph 26.5 mph N/A Snow Light Snow
1:35 AM 19.4 °F 4.5 °F 19.4 °F 100% 30.25 in 2.0 mi NE 17.3 mph 23.0 mph N/A Snow Light Snow
1:55 AM 19.4 °F 4.5 °F 17.6 °F 93% 30.26 in 7.0 mi NE 17.3 mph - N/A Snow Light Snow
2:15 AM 17.6 °F 2.2 °F 17.6 °F 100% 30.26 in 10.0 mi NE 17.3 mph - N/A   Mostly Cloudy
2:35 AM 17.6 °F 3.7 °F 17.6 °F 100% 30.29 in 10.0 mi NNE 13.8 mph - N/A   Mostly Cloudy
2:55 AM 17.6 °F 3.7 °F 17.6 °F 100% 30.30 in 10.0 mi NNE 13.8 mph - N/A   Overcast
3:15 AM 19.4 °F 5.0 °F 19.4 °F 100% 30.30 in 10.0 mi NE 16.1 mph - N/A   Overcast
3:35 AM 17.6 °F 3.2 °F 17.6 °F 100% 30.32 in 10.0 mi NNE 15.0 mph - N/A   Overcast
3:55 AM 17.6 °F 3.7 °F 17.6 °F 100% 30.32 in 10.0 mi NE 13.8 mph 20.7 mph N/A   Overcast
4:15 AM 17.6 °F 5.7 °F 17.6 °F 100% 30.34 in 10.0 mi NNE 10.4 mph - N/A   Overcast
4:35 AM 17.6 °F 5.0 °F 17.6 °F 100% 30.35 in 10.0 mi NNE 11.5 mph - N/A   Overcast
4:55 AM 17.6 °F 3.7 °F 17.6 °F 100% 30.34 in 10.0 mi NNE 13.8 mph - N/A   Overcast
5:10 AM 17.6 °F 4.3 °F 15.8 °F 93% 30.35 in 10.0 mi NNE 12.7 mph - N/A   Overcast
5:35 AM 17.6 °F 5.7 °F 17.6 °F 100% 30.36 in 10.0 mi NNE 10.4 mph - N/A   Overcast
5:55 AM 17.6 °F 5.0 °F 17.6 °F 100% 30.36 in 10.0 mi NNE 11.5 mph - N/A   Overcast
6:15 AM 17.6 °F 5.7 °F 17.6 °F 100% 30.37 in 10.0 mi NNE 10.4 mph - N/A   Overcast
6:35 AM 17.6 °F 5.7 °F 17.6 °F 100% 30.38 in 7.0 mi NNE 10.4 mph - N/A   Overcast
6:55 AM 17.6 °F 7.3 °F 17.6 °F 100% 30.38 in 10.0 mi NNE 8.1 mph - N/A   Overcast
7:15 AM 15.8 °F 6.1 °F 15.8 °F 100% 30.40 in 10.0 mi NNE 6.9 mph - N/A   Overcast
7:35 AM 15.8 °F 4.2 °F 14.0 °F 93% 30.41 in 10.0 mi North 9.2 mph - N/A   Overcast
7:55 AM 15.8 °F 6.1 °F 14.0 °F 93% 30.41 in 10.0 mi NNE 6.9 mph - N/A   Overcast
8:15 AM 15.8 °F 6.1 °F 15.8 °F 100% 30.41 in 10.0 mi NNE 6.9 mph - N/A   Overcast
8:35 AM 15.8 °F 7.2 °F 14.0 °F 93% 30.42 in 10.0 mi NNE 5.8 mph - N/A   Overcast
8:55 AM 15.8 °F 8.6 °F 14.0 °F 93% 30.43 in 10.0 mi NNE 4.6 mph - N/A   Overcast
9:15 AM 17.6 °F 10.7 °F 14.0 °F 86% 30.43 in 10.0 mi East 4.6 mph - N/A   Overcast
9:35 AM 17.6 °F - 14.0 °F 86% 30.44 in 10.0 mi Calm Calm - N/A   Overcast
9:55 AM 17.6 °F - 14.0 °F 86% 30.45 in 10.0 mi Calm Calm - N/A   Overcast
10:15 AM 17.6 °F - 14.0 °F 86% 30.45 in 10.0 mi Calm Calm - N/A Snow Light Snow
10:35 AM 17.6 °F 12.3 °F 14.0 °F 86% 30.46 in 10.0 mi SE 3.5 mph - N/A Snow Light Snow
10:55 AM 17.6 °F 12.3 °F 14.0 °F 86% 30.46 in 10.0 mi SE 3.5 mph - N/A Snow Light Snow
11:15 AM 19.4 °F 12.8 °F 14.0 °F 80% 30.45 in 10.0 mi SE 4.6 mph - N/A Snow Light Snow
11:35 AM 19.4 °F 10.4 °F 14.0 °F 80% 30.45 in 10.0 mi SSE 6.9 mph - N/A   Overcast
11:55 AM 19.4 °F 10.4 °F 14.0 °F 80% 30.45 in 10.0 mi South 6.9 mph - N/A   Overcast
12:15 PM 21.2 °F 11.7 °F 14.0 °F 74% 30.43 in 10.0 mi South 8.1 mph - N/A   Overcast
12:35 PM 21.2 °F 11.7 °F 15.8 °F 80% 30.42 in 10.0 mi South 8.1 mph - N/A   Overcast
12:55 PM 23.0 °F 13.1 °F 17.6 °F 80% 30.40 in 10.0 mi SSW 9.2 mph - N/A   Overcast
1:15 PM 23.0 °F 11.1 °F 17.6 °F 80% 30.39 in 10.0 mi SSW 12.7 mph 17.3 mph N/A   Overcast
1:35 PM 23.0 °F 10.6 °F 17.6 °F 80% 30.38 in 10.0 mi SSW 13.8 mph - N/A   Overcast
1:55 PM 24.8 °F 14.0 °F 19.4 °F 80% 30.37 in 10.0 mi SSW 11.5 mph 18.4 mph N/A   Overcast
2:15 PM 26.6 °F 14.3 °F 19.4 °F 74% 30.36 in 10.0 mi SSW 16.1 mph - N/A   Mostly Cloudy
2:35 PM 26.6 °F 15.7 °F 19.4 °F 74% 30.34 in 10.0 mi SSW 12.7 mph - N/A   Scattered Clouds
2:55 PM 28.4 °F 16.2 °F 19.4 °F 69% 30.34 in 10.0 mi SSW 17.3 mph 20.7 mph N/A   Clear
3:15 PM 28.4 °F 17.5 °F 19.4 °F 69% 30.33 in 10.0 mi South 13.8 mph 19.6 mph N/A   Clear
3:35 PM 28.4 °F 18.0 °F 19.4 °F 69% 30.33 in 10.0 mi South 12.7 mph 17.3 mph N/A   Mostly Cloudy
3:55 PM 30.2 °F 19.3 °F 19.4 °F 64% 30.32 in 10.0 mi South 15.0 mph - N/A   Overcast
4:15 PM 30.2 °F 20.2 °F 19.4 °F 64% 30.32 in 10.0 mi South 12.7 mph 19.6 mph N/A   Scattered Clouds
4:35 PM 30.2 °F 19.3 °F 19.4 °F 64% 30.31 in 10.0 mi SSW 15.0 mph - N/A   Clear
4:55 PM 28.4 °F 18.5 °F 19.4 °F 69% 30.31 in 10.0 mi South 11.5 mph 17.3 mph N/A   Clear
5:15 PM 28.4 °F 19.1 °F 19.4 °F 69% 30.30 in 10.0 mi South 10.4 mph - N/A   Clear
5:35 PM 28.4 °F 18.5 °F 19.4 °F 69% 30.30 in 10.0 mi South 11.5 mph 16.1 mph N/A   Clear
5:55 PM 26.6 °F 17.5 °F 19.4 °F 74% 30.29 in 10.0 mi South 9.2 mph - N/A   Clear
6:15 PM 26.6 °F 16.2 °F 19.4 °F 74% 30.30 in 10.0 mi South 11.5 mph 16.1 mph N/A   Clear
6:35 PM 26.6 °F 16.8 °F 19.4 °F 74% 30.29 in 10.0 mi South 10.4 mph - N/A   Clear
6:55 PM 24.8 °F 14.0 °F 19.4 °F 80% 30.29 in 10.0 mi South 11.5 mph - N/A   Clear
7:15 PM 23.0 °F 11.7 °F 17.6 °F 80% 30.29 in 10.0 mi South 11.5 mph 16.1 mph N/A   Clear
7:35 PM 23.0 °F 11.7 °F 17.6 °F 80% 30.29 in 10.0 mi South 11.5 mph - N/A   Clear
7:55 PM 21.2 °F 10.1 °F 17.6 °F 86% 30.29 in 10.0 mi South 10.4 mph - N/A   Clear
8:15 PM 21.2 °F 9.5 °F 17.6 °F 86% 30.28 in 10.0 mi South 11.5 mph - N/A   Clear
8:35 PM 21.2 °F 9.5 °F 17.6 °F 86% 30.27 in 10.0 mi SSW 11.5 mph 16.1 mph N/A   Clear
8:55 PM 23.0 °F 10.6 °F 19.4 °F 86% 30.27 in 10.0 mi SSW 13.8 mph 20.7 mph N/A   Clear
9:15 PM 23.0 °F 10.1 °F 17.6 °F 80% 30.26 in 10.0 mi SSW 15.0 mph 19.6 mph N/A   Clear
9:35 PM 21.2 °F 8.9 °F 17.6 °F 86% 30.26 in 10.0 mi SSW 12.7 mph - N/A   Clear
9:55 PM 21.2 °F 9.5 °F 17.6 °F 86% 30.25 in 10.0 mi SSW 11.5 mph - N/A   Clear
10:15 PM 19.4 °F 7.9 °F 17.6 °F 93% 30.25 in 10.0 mi SSW 10.4 mph - N/A   Clear
10:35 PM 19.4 °F 9.5 °F 17.6 °F 93% 30.24 in 10.0 mi SSW 8.1 mph - N/A   Clear
10:55 PM 19.4 °F 8.6 °F 17.6 °F 93% 30.23 in 10.0 mi South 9.2 mph - N/A   Clear
11:15 PM 19.4 °F 7.9 °F 17.6 °F 93% 30.22 in 10.0 mi South 10.4 mph - N/A   Clear
11:35 PM 19.4 °F 9.5 °F 17.6 °F 93% 30.21 in 10.0 mi SSW 8.1 mph - N/A   Clear
11:55 PM 19.4 °F 6.6 °F 17.6 °F 93% 30.20 in 10.0 mi SSW 12.7 mph - N/A   Clear